sensor_id;sensor_type;location;lat;lon;timestamp;pressure;altitude;pressure_sealevel;temperature;humidity
39954;BME280;25631;51.516;-0.470;2023-06-14T00:00:04;101404.87;;;19.96;16.64
39954;BME280;25631;51.516;-0.470;2023-06-14T00:02:41;101410.76;;;19.73;16.19
39954;BME280;25631;51.516;-0.470;2023-06-14T00:05:17;101413.07;;;19.59;15.41
39954;BME280;25631;51.516;-0.470;2023-06-14T00:07:54;101412.95;;;19.21;15.34
39954;BME280;25631;51.516;-0.470;2023-06-14T00:10:30;101413.27;;;19.46;15.28
39954;BME280;25631;51.516;-0.470;2023-06-14T00:13:07;101411.43;;;19.18;15.32
39954;BME280;25631;51.516;-0.470;2023-06-14T00:15:43;101410.96;;;19.44;15.28
39954;BME280;25631;51.516;-0.470;2023-06-14T00:18:20;101410.18;;;19.19;15.39
39954;BME280;25631;51.516;-0.470;2023-06-14T00:20:56;101407.46;;;19.45;15.21
39954;BME280;25631;51.516;-0.470;2023-06-14T00:23:33;101408.25;;;19.26;15.34
39954;BME280;25631;51.516;-0.470;2023-06-14T00:26:09;101413.77;;;19.29;15.48
39954;BME280;25631;51.516;-0.470;2023-06-14T00:28:46;101415.26;;;19.14;15.61
39954;BME280;25631;51.516;-0.470;2023-06-14T00:31:22;101413.88;;;19.03;15.81
39954;BME280;25631;51.516;-0.470;2023-06-14T00:33:59;101417.39;;;19.05;15.94
39954;BME280;25631;51.516;-0.470;2023-06-14T00:36:36;101417.27;;;18.90;16.12
39954;BME280;25631;51.516;-0.470;2023-06-14T00:39:12;101418.89;;;19.17;16.22
39954;BME280;25631;51.516;-0.470;2023-06-14T00:41:49;101416.91;;;18.88;16.41
39954;BME280;25631;51.516;-0.470;2023-06-14T00:44:25;101415.84;;;18.70;16.71
39954;BME280;25631;51.516;-0.470;2023-06-14T00:47:02;101415.71;;;18.61;16.85
39954;BME280;25631;51.516;-0.470;2023-06-14T00:49:38;101414.15;;;18.45;16.98
39954;BME280;25631;51.516;-0.470;2023-06-14T00:52:15;101417.10;;;18.23;17.21
39954;BME280;25631;51.516;-0.470;2023-06-14T00:54:52;101419.51;;;18.35;17.52
39954;BME280;25631;51.516;-0.470;2023-06-14T00:57:29;101419.87;;;18.30;17.82
39954;BME280;25631;51.516;-0.470;2023-06-14T01:00:07;101425.05;;;17.85;18.10
39954;BME280;25631;51.516;-0.470;2023-06-14T01:02:43;101423.00;;;17.99;18.25
39954;BME280;25631;51.516;-0.470;2023-06-14T01:05:20;101423.36;;;17.86;18.46
39954;BME280;25631;51.516;-0.470;2023-06-14T01:08:07;101425.32;;;17.67;18.63
39954;BME280;25631;51.516;-0.470;2023-06-14T01:10:52;101427.06;;;17.90;18.80
39954;BME280;25631;51.516;-0.470;2023-06-14T01:13:33;101426.51;;;17.92;18.97
39954;BME280;25631;51.516;-0.470;2023-06-14T01:16:10;101424.33;;;17.88;19.13
39954;BME280;25631;51.516;-0.470;2023-06-14T01:18:47;101423.95;;;17.67;19.30
39954;BME280;25631;51.516;-0.470;2023-06-14T01:21:25;101422.76;;;17.43;19.47
39954;BME280;25631;51.516;-0.470;2023-06-14T01:24:01;101422.16;;;17.63;19.68
39954;BME280;25631;51.516;-0.470;2023-06-14T01:26:38;101424.98;;;17.17;19.84
39954;BME280;25631;51.516;-0.470;2023-06-14T01:29:15;101426.66;;;17.45;20.08
39954;BME280;25631;51.516;-0.470;2023-06-14T01:31:53;101424.64;;;17.27;20.25
39954;BME280;25631;51.516;-0.470;2023-06-14T01:34:30;101422.26;;;17.24;20.38
39954;BME280;25631;51.516;-0.470;2023-06-14T01:37:08;101418.00;;;16.74;20.67
39954;BME280;25631;51.516;-0.470;2023-06-14T01:39:45;101419.48;;;16.99;20.77
39954;BME280;25631;51.516;-0.470;2023-06-14T01:42:23;101424.32;;;17.04;21.42
39954;BME280;25631;51.516;-0.470;2023-06-14T01:45:00;101422.93;;;16.74;21.83
39954;BME280;25631;51.516;-0.470;2023-06-14T01:47:38;101415.02;;;16.61;22.09
39954;BME280;25631;51.516;-0.470;2023-06-14T01:50:15;101416.21;;;16.49;22.57
39954;BME280;25631;51.516;-0.470;2023-06-14T01:52:51;101414.52;;;16.64;23.14
39954;BME280;25631;51.516;-0.470;2023-06-14T01:55:27;101410.91;;;16.51;23.55
39954;BME280;25631;51.516;-0.470;2023-06-14T01:58:04;101408.87;;;16.39;23.85
39954;BME280;25631;51.516;-0.470;2023-06-14T02:00:41;101415.24;;;16.43;23.77
39954;BME280;25631;51.516;-0.470;2023-06-14T02:03:17;101414.88;;;16.28;23.83
39954;BME280;25631;51.516;-0.470;2023-06-14T02:05:53;101418.01;;;16.30;23.81
39954;BME280;25631;51.516;-0.470;2023-06-14T02:08:30;101419.91;;;16.11;24.03
39954;BME280;25631;51.516;-0.470;2023-06-14T02:11:06;101419.70;;;16.38;24.03
39954;BME280;25631;51.516;-0.470;2023-06-14T02:13:43;101419.02;;;16.28;24.06
39954;BME280;25631;51.516;-0.470;2023-06-14T02:16:19;101415.41;;;16.35;24.20
39954;BME280;25631;51.516;-0.470;2023-06-14T02:18:56;101410.44;;;16.22;24.35
39954;BME280;25631;51.516;-0.470;2023-06-14T02:21:32;101406.66;;;16.21;24.38
39954;BME280;25631;51.516;-0.470;2023-06-14T02:24:09;101405.47;;;16.05;24.49
39954;BME280;25631;51.516;-0.470;2023-06-14T02:26:45;101406.76;;;16.10;24.53
39954;BME280;25631;51.516;-0.470;2023-06-14T02:29:22;101404.59;;;16.23;24.63
39954;BME280;25631;51.516;-0.470;2023-06-14T02:31:58;101402.07;;;16.31;24.74
39954;BME280;25631;51.516;-0.470;2023-06-14T02:34:35;101409.14;;;16.06;24.84
39954;BME280;25631;51.516;-0.470;2023-06-14T02:37:11;101413.73;;;15.83;24.93
39954;BME280;25631;51.516;-0.470;2023-06-14T02:39:48;101416.22;;;15.74;25.02
39954;BME280;25631;51.516;-0.470;2023-06-14T02:42:25;101417.51;;;15.89;25.38
39954;BME280;25631;51.516;-0.470;2023-06-14T02:45:01;101413.18;;;15.90;25.35
39954;BME280;25631;51.516;-0.470;2023-06-14T02:47:38;101410.95;;;15.81;25.78
39954;BME280;25631;51.516;-0.470;2023-06-14T02:50:14;101403.72;;;15.52;26.23
39954;BME280;25631;51.516;-0.470;2023-06-14T02:52:51;101402.01;;;15.78;26.53
39954;BME280;25631;51.516;-0.470;2023-06-14T02:55:27;101403.96;;;15.52;26.87
39954;BME280;25631;51.516;-0.470;2023-06-14T02:58:04;101401.93;;;15.81;26.87
39954;BME280;25631;51.516;-0.470;2023-06-14T03:00:40;101405.21;;;15.56;27.01
39954;BME280;25631;51.516;-0.470;2023-06-14T03:03:17;101409.94;;;15.56;27.10
39954;BME280;25631;51.516;-0.470;2023-06-14T03:05:53;101411.13;;;15.67;27.20
39954;BME280;25631;51.516;-0.470;2023-06-14T03:08:29;101411.06;;;15.34;27.33
39954;BME280;25631;51.516;-0.470;2023-06-14T03:11:06;101409.82;;;15.30;27.42
39954;BME280;25631;51.516;-0.470;2023-06-14T03:13:43;101409.19;;;15.27;27.77
39954;BME280;25631;51.516;-0.470;2023-06-14T03:16:19;101408.35;;;15.41;28.02
39954;BME280;25631;51.516;-0.470;2023-06-14T03:18:56;101413.56;;;15.45;28.17
39954;BME280;25631;51.516;-0.470;2023-06-14T03:21:32;101417.61;;;15.56;28.32
39954;BME280;25631;51.516;-0.470;2023-06-14T03:24:08;101422.87;;;15.39;28.46
39954;BME280;25631;51.516;-0.470;2023-06-14T03:26:45;101418.62;;;15.24;28.55
39954;BME280;25631;51.516;-0.470;2023-06-14T03:29:21;101420.15;;;15.33;28.78
39954;BME280;25631;51.516;-0.470;2023-06-14T03:31:59;101418.39;;;15.17;28.76
39954;BME280;25631;51.516;-0.470;2023-06-14T03:34:36;101416.52;;;15.40;28.89
39954;BME280;25631;51.516;-0.470;2023-06-14T03:37:13;101421.73;;;15.29;28.99
39954;BME280;25631;51.516;-0.470;2023-06-14T03:39:49;101419.12;;;15.16;29.11
39954;BME280;25631;51.516;-0.470;2023-06-14T03:42:26;101411.75;;;15.20;29.34
39954;BME280;25631;51.516;-0.470;2023-06-14T03:45:03;101413.22;;;15.02;29.58
39954;BME280;25631;51.516;-0.470;2023-06-14T03:47:40;101413.34;;;15.11;29.78
39954;BME280;25631;51.516;-0.470;2023-06-14T03:50:17;101413.53;;;14.85;30.20
39954;BME280;25631;51.516;-0.470;2023-06-14T03:52:54;101414.91;;;14.73;30.38
39954;BME280;25631;51.516;-0.470;2023-06-14T03:55:30;101415.98;;;14.87;30.49
39954;BME280;25631;51.516;-0.470;2023-06-14T03:58:07;101418.52;;;14.70;30.61
39954;BME280;25631;51.516;-0.470;2023-06-14T04:00:43;101416.50;;;14.56;30.90
39954;BME280;25631;51.516;-0.470;2023-06-14T04:03:19;101414.43;;;14.69;30.97
39954;BME280;25631;51.516;-0.470;2023-06-14T04:05:56;101417.15;;;14.52;31.14
39954;BME280;25631;51.516;-0.470;2023-06-14T04:08:32;101415.23;;;14.53;31.18
39954;BME280;25631;51.516;-0.470;2023-06-14T04:11:09;101415.63;;;14.85;31.21
39954;BME280;25631;51.516;-0.470;2023-06-14T04:13:45;101418.77;;;14.75;31.25
39954;BME280;25631;51.516;-0.470;2023-06-14T04:16:22;101417.17;;;14.63;31.42
39954;BME280;25631;51.516;-0.470;2023-06-14T04:18:58;101415.71;;;14.48;31.38
39954;BME280;25631;51.516;-0.470;2023-06-14T04:21:35;101416.56;;;14.44;31.41
39954;BME280;25631;51.516;-0.470;2023-06-14T04:24:11;101416.67;;;14.44;31.49
39954;BME280;25631;51.516;-0.470;2023-06-14T04:26:49;101422.18;;;14.71;31.70
39954;BME280;25631;51.516;-0.470;2023-06-14T04:29:25;101425.58;;;14.79;31.77
39954;BME280;25631;51.516;-0.470;2023-06-14T04:32:02;101427.39;;;14.42;31.87
39954;BME280;25631;51.516;-0.470;2023-06-14T04:34:39;101422.54;;;14.58;31.79
39954;BME280;25631;51.516;-0.470;2023-06-14T04:37:15;101424.19;;;14.54;31.89
39954;BME280;25631;51.516;-0.470;2023-06-14T04:39:52;101419.90;;;14.78;31.95
39954;BME280;25631;51.516;-0.470;2023-06-14T04:42:29;101420.46;;;15.01;32.22
39954;BME280;25631;51.516;-0.470;2023-06-14T04:45:06;101422.63;;;14.53;32.48
39954;BME280;25631;51.516;-0.470;2023-06-14T04:47:43;101422.79;;;14.74;32.53
39954;BME280;25631;51.516;-0.470;2023-06-14T04:50:20;101428.04;;;14.45;32.56
39954;BME280;25631;51.516;-0.470;2023-06-14T04:52:56;101433.41;;;14.79;32.62
39954;BME280;25631;51.516;-0.470;2023-06-14T04:55:32;101430.55;;;14.70;32.65
39954;BME280;25631;51.516;-0.470;2023-06-14T04:58:09;101434.49;;;14.93;32.80
39954;BME280;25631;51.516;-0.470;2023-06-14T05:00:45;101432.07;;;14.51;32.88
39954;BME280;25631;51.516;-0.470;2023-06-14T05:03:22;101432.15;;;14.47;32.99
39954;BME280;25631;51.516;-0.470;2023-06-14T05:05:58;101433.41;;;14.65;33.18
39954;BME280;25631;51.516;-0.470;2023-06-14T05:08:35;101438.12;;;14.89;33.14
39954;BME280;25631;51.516;-0.470;2023-06-14T05:11:11;101439.77;;;14.78;33.22
39954;BME280;25631;51.516;-0.470;2023-06-14T05:13:48;101442.93;;;15.00;33.28
39954;BME280;25631;51.516;-0.470;2023-06-14T05:16:24;101440.75;;;14.57;33.34
39954;BME280;25631;51.516;-0.470;2023-06-14T05:19:01;101442.44;;;14.73;33.40
39954;BME280;25631;51.516;-0.470;2023-06-14T05:21:38;101442.53;;;14.64;33.50
39954;BME280;25631;51.516;-0.470;2023-06-14T05:24:15;101443.05;;;14.72;33.45
39954;BME280;25631;51.516;-0.470;2023-06-14T05:26:51;101442.29;;;14.81;33.32
39954;BME280;25631;51.516;-0.470;2023-06-14T05:29:28;101445.38;;;15.06;33.23
39954;BME280;25631;51.516;-0.470;2023-06-14T05:32:05;101446.86;;;15.27;33.20
39954;BME280;25631;51.516;-0.470;2023-06-14T05:34:43;101445.73;;;15.01;33.23
39954;BME280;25631;51.516;-0.470;2023-06-14T05:37:19;101447.09;;;15.31;33.34
39954;BME280;25631;51.516;-0.470;2023-06-14T05:39:56;101444.67;;;15.32;33.33
39954;BME280;25631;51.516;-0.470;2023-06-14T05:42:32;101443.21;;;15.40;33.38
39954;BME280;25631;51.516;-0.470;2023-06-14T05:45:09;101446.04;;;15.24;33.59
39954;BME280;25631;51.516;-0.470;2023-06-14T05:47:46;101444.36;;;15.24;33.70
39954;BME280;25631;51.516;-0.470;2023-06-14T05:50:22;101445.60;;;15.31;33.89
39954;BME280;25631;51.516;-0.470;2023-06-14T05:52:58;101442.81;;;15.40;33.79
39954;BME280;25631;51.516;-0.470;2023-06-14T05:55:35;101444.24;;;15.30;33.80
39954;BME280;25631;51.516;-0.470;2023-06-14T05:58:11;101444.88;;;15.25;33.79
39954;BME280;25631;51.516;-0.470;2023-06-14T06:00:48;101442.82;;;15.62;33.84
39954;BME280;25631;51.516;-0.470;2023-06-14T06:03:25;101443.31;;;15.33;33.84
39954;BME280;25631;51.516;-0.470;2023-06-14T06:06:01;101441.09;;;15.43;33.80
39954;BME280;25631;51.516;-0.470;2023-06-14T06:08:38;101436.54;;;15.46;33.74
39954;BME280;25631;51.516;-0.470;2023-06-14T06:11:14;101442.38;;;15.46;33.89
39954;BME280;25631;51.516;-0.470;2023-06-14T06:13:51;101441.02;;;15.57;33.77
39954;BME280;25631;51.516;-0.470;2023-06-14T06:16:28;101444.98;;;15.86;33.75
39954;BME280;25631;51.516;-0.470;2023-06-14T06:19:05;101449.12;;;16.08;33.81
39954;BME280;25631;51.516;-0.470;2023-06-14T06:21:41;101447.39;;;15.69;33.94
39954;BME280;25631;51.516;-0.470;2023-06-14T06:24:18;101447.66;;;15.49;34.05
39954;BME280;25631;51.516;-0.470;2023-06-14T06:26:54;101448.01;;;15.82;34.08
39954;BME280;25631;51.516;-0.470;2023-06-14T06:29:31;101450.57;;;15.76;34.08
39954;BME280;25631;51.516;-0.470;2023-06-14T06:32:07;101450.05;;;15.96;34.04
39954;BME280;25631;51.516;-0.470;2023-06-14T06:34:44;101452.84;;;15.84;33.96
39954;BME280;25631;51.516;-0.470;2023-06-14T06:37:21;101450.44;;;15.95;33.87
39954;BME280;25631;51.516;-0.470;2023-06-14T06:39:57;101449.54;;;16.23;33.90
39954;BME280;25631;51.516;-0.470;2023-06-14T06:42:34;101450.80;;;16.32;33.87
39954;BME280;25631;51.516;-0.470;2023-06-14T06:45:11;101449.26;;;16.03;34.02
39954;BME280;25631;51.516;-0.470;2023-06-14T06:47:47;101454.59;;;16.03;33.93
39954;BME280;25631;51.516;-0.470;2023-06-14T06:50:24;101456.09;;;16.22;33.78
39954;BME280;25631;51.516;-0.470;2023-06-14T06:53:00;101457.75;;;16.33;33.83
39954;BME280;25631;51.516;-0.470;2023-06-14T06:55:37;101454.60;;;16.35;33.73
39954;BME280;25631;51.516;-0.470;2023-06-14T06:58:14;101456.25;;;16.37;33.75
39954;BME280;25631;51.516;-0.470;2023-06-14T07:00:50;101456.34;;;16.57;33.65
39954;BME280;25631;51.516;-0.470;2023-06-14T07:03:27;101460.76;;;16.62;33.69
39954;BME280;25631;51.516;-0.470;2023-06-14T07:06:03;101463.01;;;16.65;33.67
39954;BME280;25631;51.516;-0.470;2023-06-14T07:08:40;101464.95;;;16.82;33.67
39954;BME280;25631;51.516;-0.470;2023-06-14T07:11:17;101465.91;;;16.71;33.78
39954;BME280;25631;51.516;-0.470;2023-06-14T07:13:53;101460.34;;;16.59;33.71
39954;BME280;25631;51.516;-0.470;2023-06-14T07:16:30;101463.78;;;16.65;33.69
39954;BME280;25631;51.516;-0.470;2023-06-14T07:19:06;101460.50;;;16.99;33.84
39954;BME280;25631;51.516;-0.470;2023-06-14T07:21:43;101460.21;;;16.77;33.72
39954;BME280;25631;51.516;-0.470;2023-06-14T07:24:20;101460.16;;;16.81;33.56
39954;BME280;25631;51.516;-0.470;2023-06-14T07:26:56;101462.45;;;16.98;33.57
39954;BME280;25631;51.516;-0.470;2023-06-14T07:29:33;101464.88;;;17.12;33.55
39954;BME280;25631;51.516;-0.470;2023-06-14T07:32:09;101468.66;;;17.16;33.54
39954;BME280;25631;51.516;-0.470;2023-06-14T07:34:46;101468.03;;;17.30;33.43
39954;BME280;25631;51.516;-0.470;2023-06-14T07:37:22;101467.06;;;17.24;33.39
39954;BME280;25631;51.516;-0.470;2023-06-14T07:39:58;101466.44;;;17.36;33.40
39954;BME280;25631;51.516;-0.470;2023-06-14T07:42:35;101470.47;;;17.58;33.30
39954;BME280;25631;51.516;-0.470;2023-06-14T07:45:13;101472.88;;;17.80;33.26
39954;BME280;25631;51.516;-0.470;2023-06-14T07:47:50;101470.97;;;17.79;33.17
39954;BME280;25631;51.516;-0.470;2023-06-14T07:50:26;101477.65;;;17.83;33.08
39954;BME280;25631;51.516;-0.470;2023-06-14T07:53:03;101472.04;;;17.96;32.98
39954;BME280;25631;51.516;-0.470;2023-06-14T07:55:39;101471.59;;;18.08;32.97
39954;BME280;25631;51.516;-0.470;2023-06-14T07:58:16;101472.72;;;18.09;32.96
39954;BME280;25631;51.516;-0.470;2023-06-14T08:00:53;101476.74;;;18.21;33.05
39954;BME280;25631;51.516;-0.470;2023-06-14T08:03:30;101473.83;;;18.20;32.83
39954;BME280;25631;51.516;-0.470;2023-06-14T08:06:07;101478.75;;;18.34;32.88
39954;BME280;25631;51.516;-0.470;2023-06-14T08:08:43;101477.95;;;18.48;32.83
39954;BME280;25631;51.516;-0.470;2023-06-14T08:11:20;101480.31;;;18.66;32.61
39954;BME280;25631;51.516;-0.470;2023-06-14T08:13:56;101480.08;;;18.63;32.46
39954;BME280;25631;51.516;-0.470;2023-06-14T08:16:33;101481.75;;;18.64;32.47
39954;BME280;25631;51.516;-0.470;2023-06-14T08:19:09;101478.74;;;18.79;32.40
39954;BME280;25631;51.516;-0.470;2023-06-14T08:21:46;101476.49;;;18.88;32.34
39954;BME280;25631;51.516;-0.470;2023-06-14T08:24:22;101479.15;;;19.04;32.34
39954;BME280;25631;51.516;-0.470;2023-06-14T08:26:58;101484.58;;;19.40;32.14
39954;BME280;25631;51.516;-0.470;2023-06-14T08:29:35;101487.74;;;19.05;31.98
39954;BME280;25631;51.516;-0.470;2023-06-14T08:32:12;101487.80;;;19.45;32.01
39954;BME280;25631;51.516;-0.470;2023-06-14T08:34:48;101486.96;;;19.32;31.96
39954;BME280;25631;51.516;-0.470;2023-06-14T08:37:25;101486.92;;;19.39;31.87
39954;BME280;25631;51.516;-0.470;2023-06-14T08:40:02;101486.39;;;19.70;31.82
39954;BME280;25631;51.516;-0.470;2023-06-14T08:42:38;101486.17;;;19.29;31.92
39954;BME280;25631;51.516;-0.470;2023-06-14T08:45:16;101486.97;;;19.33;31.79
39954;BME280;25631;51.516;-0.470;2023-06-14T08:47:53;101484.90;;;19.62;31.78
39954;BME280;25631;51.516;-0.470;2023-06-14T08:50:30;101485.07;;;19.75;31.61
39954;BME280;25631;51.516;-0.470;2023-06-14T08:53:08;101482.32;;;20.02;31.38
39954;BME280;25631;51.516;-0.470;2023-06-14T08:55:47;101479.38;;;19.76;31.41
39954;BME280;25631;51.516;-0.470;2023-06-14T08:58:24;101482.19;;;20.22;31.45
39954;BME280;25631;51.516;-0.470;2023-06-14T09:01:01;101476.68;;;19.95;31.27
39954;BME280;25631;51.516;-0.470;2023-06-14T09:03:38;101475.90;;;20.24;31.21
39954;BME280;25631;51.516;-0.470;2023-06-14T09:06:14;101479.36;;;20.31;31.27
39954;BME280;25631;51.516;-0.470;2023-06-14T09:08:51;101484.00;;;20.30;31.22
39954;BME280;25631;51.516;-0.470;2023-06-14T09:11:27;101483.28;;;20.69;31.12
39954;BME280;25631;51.516;-0.470;2023-06-14T09:14:04;101482.06;;;20.61;30.99
39954;BME280;25631;51.516;-0.470;2023-06-14T09:16:40;101481.05;;;20.79;30.94
39954;BME280;25631;51.516;-0.470;2023-06-14T09:19:21;101483.76;;;20.79;30.76
39954;BME280;25631;51.516;-0.470;2023-06-14T09:21:59;101482.20;;;21.35;30.71
39954;BME280;25631;51.516;-0.470;2023-06-14T09:24:36;101487.68;;;20.96;30.56
39954;BME280;25631;51.516;-0.470;2023-06-14T09:27:15;101488.86;;;20.87;30.23
39954;BME280;25631;51.516;-0.470;2023-06-14T09:29:52;101488.03;;;21.30;30.08
39954;BME280;25631;51.516;-0.470;2023-06-14T09:32:28;101491.26;;;21.50;29.83
39954;BME280;25631;51.516;-0.470;2023-06-14T09:35:06;101487.56;;;21.60;29.63
39954;BME280;25631;51.516;-0.470;2023-06-14T09:37:43;101490.76;;;21.87;29.64
39954;BME280;25631;51.516;-0.470;2023-06-14T09:40:20;101493.95;;;21.84;29.71
39954;BME280;25631;51.516;-0.470;2023-06-14T09:42:57;101494.03;;;21.76;29.69
39954;BME280;25631;51.516;-0.470;2023-06-14T09:45:34;101492.58;;;22.14;29.22
39954;BME280;25631;51.516;-0.470;2023-06-14T09:48:11;101493.11;;;21.84;29.21
39954;BME280;25631;51.516;-0.470;2023-06-14T09:50:50;101489.51;;;22.12;29.00
39954;BME280;25631;51.516;-0.470;2023-06-14T09:53:29;101486.18;;;22.12;28.81
39954;BME280;25631;51.516;-0.470;2023-06-14T09:56:06;101491.54;;;22.22;28.52
39954;BME280;25631;51.516;-0.470;2023-06-14T09:58:43;101488.16;;;22.33;28.15
39954;BME280;25631;51.516;-0.470;2023-06-14T10:01:21;101489.54;;;22.21;28.20
39954;BME280;25631;51.516;-0.470;2023-06-14T10:04:02;101490.72;;;22.36;28.29
39954;BME280;25631;51.516;-0.470;2023-06-14T10:06:41;101492.80;;;22.67;27.43
39954;BME280;25631;51.516;-0.470;2023-06-14T10:09:18;101488.56;;;22.80;27.47
39954;BME280;25631;51.516;-0.470;2023-06-14T10:11:55;101486.59;;;22.95;27.46
39954;BME280;25631;51.516;-0.470;2023-06-14T10:14:33;101488.06;;;22.91;27.34
39954;BME280;25631;51.516;-0.470;2023-06-14T10:17:12;101485.24;;;22.82;26.70
39954;BME280;25631;51.516;-0.470;2023-06-14T10:19:58;101483.55;;;23.24;26.48
39954;BME280;25631;51.516;-0.470;2023-06-14T10:22:44;101481.24;;;23.39;26.64
39954;BME280;25631;51.516;-0.470;2023-06-14T10:25:28;101476.04;;;23.32;26.74
39954;BME280;25631;51.516;-0.470;2023-06-14T10:28:15;101479.42;;;23.54;26.48
39954;BME280;25631;51.516;-0.470;2023-06-14T10:31:08;101476.83;;;23.47;26.08
39954;BME280;25631;51.516;-0.470;2023-06-14T10:33:49;101480.10;;;23.63;25.38
39954;BME280;25631;51.516;-0.470;2023-06-14T10:36:27;101479.33;;;23.77;25.30
39954;BME280;25631;51.516;-0.470;2023-06-14T10:39:06;101481.52;;;24.00;25.25
39954;BME280;25631;51.516;-0.470;2023-06-14T10:41:51;101485.15;;;23.96;25.35
39954;BME280;25631;51.516;-0.470;2023-06-14T10:44:33;101482.07;;;24.10;25.17
39954;BME280;25631;51.516;-0.470;2023-06-14T10:47:11;101477.95;;;24.33;25.16
39954;BME280;25631;51.516;-0.470;2023-06-14T10:50:02;101474.12;;;24.26;24.91
39954;BME280;25631;51.516;-0.470;2023-06-14T10:52:41;101473.13;;;24.48;24.52
39954;BME280;25631;51.516;-0.470;2023-06-14T10:55:18;101477.05;;;24.81;24.52
39954;BME280;25631;51.516;-0.470;2023-06-14T10:57:55;101478.65;;;24.69;24.55
39954;BME280;25631;51.516;-0.470;2023-06-14T11:00:33;101479.83;;;24.68;23.51
39954;BME280;25631;51.516;-0.470;2023-06-14T11:03:50;101475.18;;;24.77;23.21
39954;BME280;25631;51.516;-0.470;2023-06-14T11:06:34;101475.93;;;25.11;23.33
39954;BME280;25631;51.516;-0.470;2023-06-14T11:09:32;101467.91;;;25.13;23.41
39954;BME280;25631;51.516;-0.470;2023-06-14T11:12:15;101466.20;;;25.20;22.83
39954;BME280;25631;51.516;-0.470;2023-06-14T11:14:53;101470.27;;;25.51;22.34
39954;BME280;25631;51.516;-0.470;2023-06-14T11:17:30;101460.59;;;25.58;21.38
39954;BME280;25631;51.516;-0.470;2023-06-14T11:20:08;101460.36;;;25.74;21.35
39954;BME280;25631;51.516;-0.470;2023-06-14T11:22:45;101462.91;;;25.87;21.59
39954;BME280;25631;51.516;-0.470;2023-06-14T11:25:22;101458.96;;;25.45;21.14
39954;BME280;25631;51.516;-0.470;2023-06-14T11:27:59;101452.01;;;25.92;21.34
39954;BME280;25631;51.516;-0.470;2023-06-14T11:30:35;101455.62;;;26.09;21.43
39954;BME280;25631;51.516;-0.470;2023-06-14T11:33:17;101454.57;;;26.13;21.09
39954;BME280;25631;51.516;-0.470;2023-06-14T11:35:54;101459.23;;;26.11;20.98
39954;BME280;25631;51.516;-0.470;2023-06-14T11:38:30;101456.48;;;26.29;21.02
39954;BME280;25631;51.516;-0.470;2023-06-14T11:41:07;101457.35;;;26.19;20.95
39954;BME280;25631;51.516;-0.470;2023-06-14T11:43:43;101454.59;;;26.49;20.66
39954;BME280;25631;51.516;-0.470;2023-06-14T11:46:19;101453.57;;;26.66;20.81
39954;BME280;25631;51.516;-0.470;2023-06-14T11:48:56;101446.32;;;26.65;20.72
39954;BME280;25631;51.516;-0.470;2023-06-14T11:51:33;101448.98;;;26.56;20.88
39954;BME280;25631;51.516;-0.470;2023-06-14T11:54:10;101450.41;;;26.75;20.73
39954;BME280;25631;51.516;-0.470;2023-06-14T11:56:47;101445.36;;;27.04;20.64
39954;BME280;25631;51.516;-0.470;2023-06-14T11:59:24;101444.80;;;26.99;20.50
39954;BME280;25631;51.516;-0.470;2023-06-14T12:02:03;101446.24;;;27.28;20.53
39954;BME280;25631;51.516;-0.470;2023-06-14T12:04:41;101446.40;;;27.04;20.48
39954;BME280;25631;51.516;-0.470;2023-06-14T12:07:18;101441.49;;;27.19;20.50
39954;BME280;25631;51.516;-0.470;2023-06-14T12:10:11;101436.70;;;27.36;20.52
39954;BME280;25631;51.516;-0.470;2023-06-14T12:12:47;101437.18;;;27.41;20.24
39954;BME280;25631;51.516;-0.470;2023-06-14T12:15:24;101439.04;;;27.20;20.35
39954;BME280;25631;51.516;-0.470;2023-06-14T12:18:00;101440.13;;;27.24;20.29
39954;BME280;25631;51.516;-0.470;2023-06-14T12:20:39;101436.42;;;27.65;19.54
39954;BME280;25631;51.516;-0.470;2023-06-14T12:23:15;101433.74;;;27.55;18.96
39954;BME280;25631;51.516;-0.470;2023-06-14T12:25:52;101437.15;;;27.27;19.39
39954;BME280;25631;51.516;-0.470;2023-06-14T12:28:31;101436.85;;;27.55;17.65
39954;BME280;25631;51.516;-0.470;2023-06-14T12:31:07;101435.48;;;27.69;17.39
39954;BME280;25631;51.516;-0.470;2023-06-14T12:33:44;101435.10;;;27.74;17.33
39954;BME280;25631;51.516;-0.470;2023-06-14T12:36:20;101430.59;;;27.70;17.68
39954;BME280;25631;51.516;-0.470;2023-06-14T12:38:57;101429.60;;;27.64;18.10
39954;BME280;25631;51.516;-0.470;2023-06-14T12:41:33;101430.43;;;27.72;17.86
39954;BME280;25631;51.516;-0.470;2023-06-14T12:44:11;101439.22;;;27.78;18.09
39954;BME280;25631;51.516;-0.470;2023-06-14T12:46:48;101437.28;;;28.02;18.08
39954;BME280;25631;51.516;-0.470;2023-06-14T12:49:24;101432.48;;;28.20;17.46
39954;BME280;25631;51.516;-0.470;2023-06-14T12:52:01;101435.55;;;28.27;17.75
39954;BME280;25631;51.516;-0.470;2023-06-14T12:54:37;101433.06;;;28.58;17.51
39954;BME280;25631;51.516;-0.470;2023-06-14T12:57:13;101431.30;;;29.03;17.16
39954;BME280;25631;51.516;-0.470;2023-06-14T12:59:50;101431.81;;;28.99;16.95
39954;BME280;25631;51.516;-0.470;2023-06-14T13:02:26;101432.83;;;28.86;16.81
39954;BME280;25631;51.516;-0.470;2023-06-14T13:05:03;101429.55;;;28.70;16.44
39954;BME280;25631;51.516;-0.470;2023-06-14T13:07:39;101433.69;;;29.18;16.84
39954;BME280;25631;51.516;-0.470;2023-06-14T13:10:16;101438.15;;;29.25;16.45
39954;BME280;25631;51.516;-0.470;2023-06-14T13:12:52;101434.55;;;29.40;15.68
39954;BME280;25631;51.516;-0.470;2023-06-14T13:15:29;101431.84;;;29.37;15.45
39954;BME280;25631;51.516;-0.470;2023-06-14T13:18:05;101437.22;;;29.57;15.66
39954;BME280;25631;51.516;-0.470;2023-06-14T13:20:42;101431.36;;;29.44;15.24
39954;BME280;25631;51.516;-0.470;2023-06-14T13:23:19;101425.96;;;29.80;15.17
39954;BME280;25631;51.516;-0.470;2023-06-14T13:25:55;101424.33;;;29.76;15.07
39954;BME280;25631;51.516;-0.470;2023-06-14T13:28:31;101426.45;;;29.41;14.89
39954;BME280;25631;51.516;-0.470;2023-06-14T13:31:08;101426.78;;;29.97;14.95